sensor_id;sensor_type;location;lat;lon;timestamp;pressure;altitude;pressure_sealevel;temperature;humidity
12101;BME280;6113;42.678;23.334;2022-09-09T00:02:27;95009.97;;;21.71;70.58
12101;BME280;6113;42.678;23.334;2022-09-09T00:04:58;94994.59;;;21.70;70.62
12101;BME280;6113;42.678;23.334;2022-09-09T00:07:35;95003.72;;;21.65;70.95
12101;BME280;6113;42.678;23.334;2022-09-09T00:10:16;95003.06;;;21.59;71.65
12101;BME280;6113;42.678;23.334;2022-09-09T00:12:51;94999.84;;;21.55;72.00
12101;BME280;6113;42.678;23.334;2022-09-09T00:15:22;94975.31;;;21.40;72.51
12101;BME280;6113;42.678;23.334;2022-09-09T00:17:53;95005.13;;;21.53;72.64
12101;BME280;6113;42.678;23.334;2022-09-09T00:20:29;95007.22;;;21.47;73.05
12101;BME280;6113;42.678;23.334;2022-09-09T00:23:02;95002.97;;;21.46;73.45
12101;BME280;6113;42.678;23.334;2022-09-09T00:25:39;94981.91;;;21.38;74.14
12101;BME280;6113;42.678;23.334;2022-09-09T00:28:14;94884.53;;;20.73;74.41
12101;BME280;6113;42.678;23.334;2022-09-09T00:30:43;94979.00;;;21.30;75.10
12101;BME280;6113;42.678;23.334;2022-09-09T00:33:15;94950.97;;;21.15;75.40
12101;BME280;6113;42.678;23.334;2022-09-09T00:35:46;94956.97;;;21.19;75.23
12101;BME280;6113;42.678;23.334;2022-09-09T00:38:15;94933.28;;;21.00;75.53
12101;BME280;6113;42.678;23.334;2022-09-09T00:40:50;94961.91;;;21.26;75.54
12101;BME280;6113;42.678;23.334;2022-09-09T00:43:29;94956.38;;;21.26;75.65
12101;BME280;6113;42.678;23.334;2022-09-09T00:46:14;94954.06;;;21.30;75.46
12101;BME280;6113;42.678;23.334;2022-09-09T00:48:53;94956.59;;;21.28;75.60
12101;BME280;6113;42.678;23.334;2022-09-09T00:51:29;94957.81;;;21.33;75.17
12101;BME280;6113;42.678;23.334;2022-09-09T00:57:11;94960.63;;;21.27;75.80
12101;BME280;6113;42.678;23.334;2022-09-09T00:59:46;94954.44;;;21.21;76.30
12101;BME280;6113;42.678;23.334;2022-09-09T01:02:19;94959.97;;;21.21;76.35
12101;BME280;6113;42.678;23.334;2022-09-09T01:04:48;94954.00;;;21.17;76.40
12101;BME280;6113;42.678;23.334;2022-09-09T01:07:16;94948.09;;;21.02;76.36
12101;BME280;6113;42.678;23.334;2022-09-09T01:09:52;94955.47;;;21.18;76.74
12101;BME280;6113;42.678;23.334;2022-09-09T01:12:28;94960.31;;;21.12;77.08
12101;BME280;6113;42.678;23.334;2022-09-09T01:15:03;94921.16;;;20.84;77.25
12101;BME280;6113;42.678;23.334;2022-09-09T01:17:33;94964.97;;;21.04;77.71
12101;BME280;6113;42.678;23.334;2022-09-09T01:20:04;94935.50;;;20.83;77.82
12101;BME280;6113;42.678;23.334;2022-09-09T01:22:35;94967.28;;;21.00;78.19
12101;BME280;6113;42.678;23.334;2022-09-09T01:26:02;94967.19;;;21.06;77.95
12101;BME280;6113;42.678;23.334;2022-09-09T01:28:32;94919.50;;;20.76;78.02
12101;BME280;6113;42.678;23.334;2022-09-09T01:31:01;94953.19;;;20.98;78.25
12101;BME280;6113;42.678;23.334;2022-09-09T01:33:28;94967.34;;;20.95;78.63
12101;BME280;6113;42.678;23.334;2022-09-09T01:35:58;94958.47;;;20.78;78.80
12101;BME280;6113;42.678;23.334;2022-09-09T01:38:26;94950.44;;;20.74;78.88
12101;BME280;6113;42.678;23.334;2022-09-09T01:40:55;94979.28;;;20.84;78.89
12101;BME280;6113;42.678;23.334;2022-09-09T01:43:24;94960.75;;;20.74;78.86
12101;BME280;6113;42.678;23.334;2022-09-09T01:45:54;94981.28;;;20.84;78.93
12101;BME280;6113;42.678;23.334;2022-09-09T01:48:22;94972.00;;;20.81;78.94
12101;BME280;6113;42.678;23.334;2022-09-09T01:50:50;94972.31;;;20.78;79.49
12101;BME280;6113;42.678;23.334;2022-09-09T01:53:18;94962.91;;;20.62;79.71
12101;BME280;6113;42.678;23.334;2022-09-09T01:55:58;94968.19;;;20.60;79.82
12101;BME280;6113;42.678;23.334;2022-09-09T01:58:34;94986.16;;;20.72;79.82
12101;BME280;6113;42.678;23.334;2022-09-09T02:01:10;94988.50;;;20.68;80.11
12101;BME280;6113;42.678;23.334;2022-09-09T02:03:38;94979.41;;;20.68;80.21
12101;BME280;6113;42.678;23.334;2022-09-09T02:06:17;94978.22;;;20.63;80.39
12101;BME280;6113;42.678;23.334;2022-09-09T02:08:48;94962.75;;;20.50;80.39
12101;BME280;6113;42.678;23.334;2022-09-09T02:11:17;94958.00;;;20.50;80.22
12101;BME280;6113;42.678;23.334;2022-09-09T02:13:47;94980.78;;;20.61;80.48
12101;BME280;6113;42.678;23.334;2022-09-09T02:16:21;94928.78;;;20.31;80.45
12101;BME280;6113;42.678;23.334;2022-09-09T02:18:51;94930.97;;;20.38;80.82
12101;BME280;6113;42.678;23.334;2022-09-09T02:21:21;94949.84;;;20.58;80.55
12101;BME280;6113;42.678;23.334;2022-09-09T02:23:50;94961.16;;;20.59;80.43
12101;BME280;6113;42.678;23.334;2022-09-09T02:26:18;94968.94;;;20.61;80.03
12101;BME280;6113;42.678;23.334;2022-09-09T02:28:50;94971.75;;;20.56;80.36
12101;BME280;6113;42.678;23.334;2022-09-09T02:31:18;94968.78;;;20.54;80.21
12101;BME280;6113;42.678;23.334;2022-09-09T02:33:53;94979.34;;;20.50;80.34
12101;BME280;6113;42.678;23.334;2022-09-09T02:36:25;94948.81;;;20.37;80.44
12101;BME280;6113;42.678;23.334;2022-09-09T02:38:54;94945.66;;;20.27;80.22
12101;BME280;6113;42.678;23.334;2022-09-09T02:41:25;94958.44;;;20.30;80.15
12101;BME280;6113;42.678;23.334;2022-09-09T02:43:55;94973.66;;;20.42;79.93
12101;BME280;6113;42.678;23.334;2022-09-09T02:46:33;94979.47;;;20.39;80.12
12101;BME280;6113;42.678;23.334;2022-09-09T02:49:09;94991.31;;;20.34;80.56
12101;BME280;6113;42.678;23.334;2022-09-09T02:51:40;94988.56;;;20.34;80.68
12101;BME280;6113;42.678;23.334;2022-09-09T02:54:17;94878.84;;;19.65;81.17
12101;BME280;6113;42.678;23.334;2022-09-09T02:56:51;94979.56;;;20.28;82.28
12101;BME280;6113;42.678;23.334;2022-09-09T02:59:21;94932.84;;;19.95;82.31
12101;BME280;6113;42.678;23.334;2022-09-09T03:01:49;94978.56;;;20.31;82.24
12101;BME280;6113;42.678;23.334;2022-09-09T03:04:16;94985.09;;;20.28;82.81
12101;BME280;6113;42.678;23.334;2022-09-09T03:06:42;94985.63;;;20.26;82.82
12101;BME280;6113;42.678;23.334;2022-09-09T03:09:09;94987.34;;;20.29;82.78
12101;BME280;6113;42.678;23.334;2022-09-09T03:11:36;94974.38;;;20.19;82.82
12101;BME280;6113;42.678;23.334;2022-09-09T03:14:04;94988.47;;;20.15;83.08
12101;BME280;6113;42.678;23.334;2022-09-09T03:16:32;94986.66;;;20.23;83.31
12101;BME280;6113;42.678;23.334;2022-09-09T03:18:59;94968.69;;;20.06;83.47
12101;BME280;6113;42.678;23.334;2022-09-09T03:21:26;94990.97;;;20.19;83.57
12101;BME280;6113;42.678;23.334;2022-09-09T03:23:53;94983.69;;;20.16;83.77
12101;BME280;6113;42.678;23.334;2022-09-09T03:26:20;94967.72;;;20.03;83.62
12101;BME280;6113;42.678;23.334;2022-09-09T03:28:47;94994.28;;;20.12;83.70
12101;BME280;6113;42.678;23.334;2022-09-09T03:31:17;94963.50;;;19.97;83.58
12101;BME280;6113;42.678;23.334;2022-09-09T03:33:46;94995.31;;;20.09;83.99
12101;BME280;6113;42.678;23.334;2022-09-09T03:36:13;94959.00;;;19.88;83.84
12101;BME280;6113;42.678;23.334;2022-09-09T03:38:40;94994.06;;;20.04;83.88
12101;BME280;6113;42.678;23.334;2022-09-09T03:41:07;94986.06;;;20.01;84.04
12101;BME280;6113;42.678;23.334;2022-09-09T03:43:34;94980.59;;;19.95;83.99
12101;BME280;6113;42.678;23.334;2022-09-09T03:46:01;94957.56;;;19.82;83.68
12101;BME280;6113;42.678;23.334;2022-09-09T03:48:28;94986.38;;;19.92;83.78
12101;BME280;6113;42.678;23.334;2022-09-09T03:50:56;94994.88;;;19.94;83.60
12101;BME280;6113;42.678;23.334;2022-09-09T03:53:27;94956.13;;;19.70;84.21
12101;BME280;6113;42.678;23.334;2022-09-09T03:55:55;94984.13;;;19.85;83.95
12101;BME280;6113;42.678;23.334;2022-09-09T03:58:26;95000.22;;;19.86;83.67
12101;BME280;6113;42.678;23.334;2022-09-09T04:00:54;94957.94;;;19.62;83.32
12101;BME280;6113;42.678;23.334;2022-09-09T04:03:22;95004.00;;;19.83;83.74
12101;BME280;6113;42.678;23.334;2022-09-09T04:05:50;95001.25;;;19.83;83.52
12101;BME280;6113;42.678;23.334;2022-09-09T04:08:19;94998.25;;;19.81;83.53
12101;BME280;6113;42.678;23.334;2022-09-09T04:10:46;94972.00;;;19.59;83.56
12101;BME280;6113;42.678;23.334;2022-09-09T04:13:13;94999.78;;;19.77;83.21
12101;BME280;6113;42.678;23.334;2022-09-09T04:15:41;94996.50;;;19.78;83.04
12101;BME280;6113;42.678;23.334;2022-09-09T04:18:09;94951.00;;;19.50;83.49
12101;BME280;6113;42.678;23.334;2022-09-09T04:20:37;94984.50;;;19.71;83.71
12101;BME280;6113;42.678;23.334;2022-09-09T04:23:04;94975.03;;;19.61;83.44
12101;BME280;6113;42.678;23.334;2022-09-09T04:25:32;94999.06;;;19.71;84.12
12101;BME280;6113;42.678;23.334;2022-09-09T04:27:59;94984.50;;;19.71;84.91
12101;BME280;6113;42.678;23.334;2022-09-09T04:30:26;94992.97;;;19.78;84.37
12101;BME280;6113;42.678;23.334;2022-09-09T04:32:53;94996.72;;;19.80;82.91
12101;BME280;6113;42.678;23.334;2022-09-09T04:35:20;94996.94;;;19.88;80.93
12101;BME280;6113;42.678;23.334;2022-09-09T04:37:47;94996.66;;;19.91;81.30
12101;BME280;6113;42.678;23.334;2022-09-09T04:40:14;94999.94;;;19.90;82.00
12101;BME280;6113;42.678;23.334;2022-09-09T04:42:42;95007.72;;;19.97;81.88
12101;BME280;6113;42.678;23.334;2022-09-09T04:45:10;95013.22;;;20.02;80.90
12101;BME280;6113;42.678;23.334;2022-09-09T04:47:38;95010.16;;;20.06;80.27
12101;BME280;6113;42.678;23.334;2022-09-09T04:50:07;94969.25;;;19.99;79.14
12101;BME280;6113;42.678;23.334;2022-09-09T04:52:34;94906.38;;;19.70;78.41
12101;BME280;6113;42.678;23.334;2022-09-09T04:55:02;94986.59;;;20.29;78.62
12101;BME280;6113;42.678;23.334;2022-09-09T04:57:28;94984.25;;;20.38;78.20
12101;BME280;6113;42.678;23.334;2022-09-09T04:59:58;94986.69;;;20.47;78.02
12101;BME280;6113;42.678;23.334;2022-09-09T05:02:25;94949.84;;;20.34;77.83
12101;BME280;6113;42.678;23.334;2022-09-09T05:04:52;94987.28;;;20.64;78.01
12101;BME280;6113;42.678;23.334;2022-09-09T05:07:19;94979.38;;;20.73;78.00
12101;BME280;6113;42.678;23.334;2022-09-09T05:09:46;94971.19;;;20.86;77.66
12101;BME280;6113;42.678;23.334;2022-09-09T05:12:14;94963.53;;;20.98;77.22
12101;BME280;6113;42.678;23.334;2022-09-09T05:14:41;94962.66;;;21.08;77.06
12101;BME280;6113;42.678;23.334;2022-09-09T05:17:10;94980.63;;;21.20;76.57
12101;BME280;6113;42.678;23.334;2022-09-09T05:19:38;94976.44;;;21.32;75.99
12101;BME280;6113;42.678;23.334;2022-09-09T05:22:05;94976.28;;;21.43;76.17
12101;BME280;6113;42.678;23.334;2022-09-09T05:24:33;94975.13;;;21.57;75.33
12101;BME280;6113;42.678;23.334;2022-09-09T05:26:59;94975.63;;;21.74;74.48
12101;BME280;6113;42.678;23.334;2022-09-09T05:29:27;94953.47;;;21.74;73.45
12101;BME280;6113;42.678;23.334;2022-09-09T05:31:54;94965.19;;;21.98;73.65
12101;BME280;6113;42.678;23.334;2022-09-09T05:34:23;94967.03;;;22.09;73.90
12101;BME280;6113;42.678;23.334;2022-09-09T05:36:49;94966.84;;;22.19;73.83
12101;BME280;6113;42.678;23.334;2022-09-09T05:39:17;94960.53;;;22.37;72.70
12101;BME280;6113;42.678;23.334;2022-09-09T05:41:44;94968.28;;;22.57;71.72
12101;BME280;6113;42.678;23.334;2022-09-09T05:44:11;94953.75;;;22.64;70.96
12101;BME280;6113;42.678;23.334;2022-09-09T05:46:39;94974.38;;;22.95;69.92
12101;BME280;6113;42.678;23.334;2022-09-09T05:49:06;94972.81;;;23.12;68.73
12101;BME280;6113;42.678;23.334;2022-09-09T05:51:35;94985.84;;;23.04;67.48
12101;BME280;6113;42.678;23.334;2022-09-09T05:54:01;94975.75;;;23.01;67.67
12101;BME280;6113;42.678;23.334;2022-09-09T05:56:29;94967.88;;;23.18;68.04
12101;BME280;6113;42.678;23.334;2022-09-09T05:58:56;94979.19;;;23.33;67.23
12101;BME280;6113;42.678;23.334;2022-09-09T06:01:24;94974.59;;;23.35;65.80
12101;BME280;6113;42.678;23.334;2022-09-09T06:03:52;94981.66;;;23.36;65.32
12101;BME280;6113;42.678;23.334;2022-09-09T06:06:20;94991.56;;;23.45;65.64
12101;BME280;6113;42.678;23.334;2022-09-09T06:08:51;94982.25;;;23.55;63.49
12101;BME280;6113;42.678;23.334;2022-09-09T06:11:19;94990.69;;;23.76;63.55
12101;BME280;6113;42.678;23.334;2022-09-09T06:13:47;94986.81;;;23.79;61.57
12101;BME280;6113;42.678;23.334;2022-09-09T06:16:18;94981.28;;;23.53;62.56
12101;BME280;6113;42.678;23.334;2022-09-09T06:18:45;94979.34;;;23.74;61.85
12101;BME280;6113;42.678;23.334;2022-09-09T06:21:15;94987.41;;;23.97;61.13
12101;BME280;6113;42.678;23.334;2022-09-09T06:23:43;94987.22;;;24.16;59.08
12101;BME280;6113;42.678;23.334;2022-09-09T06:26:14;94987.66;;;23.86;60.47
12101;BME280;6113;42.678;23.334;2022-09-09T06:28:42;94975.28;;;23.75;60.88
12101;BME280;6113;42.678;23.334;2022-09-09T06:31:11;94994.47;;;24.19;60.67
12101;BME280;6113;42.678;23.334;2022-09-09T06:33:40;94987.75;;;24.48;59.80
12101;BME280;6113;42.678;23.334;2022-09-09T06:36:10;94987.09;;;24.42;58.76
12101;BME280;6113;42.678;23.334;2022-09-09T06:38:37;94977.78;;;24.39;57.76
12101;BME280;6113;42.678;23.334;2022-09-09T06:41:04;94972.88;;;24.45;58.34
12101;BME280;6113;42.678;23.334;2022-09-09T06:43:33;94969.19;;;24.70;57.85
12101;BME280;6113;42.678;23.334;2022-09-09T06:46:02;94970.28;;;24.95;57.18
12101;BME280;6113;42.678;23.334;2022-09-09T06:48:29;94971.41;;;25.20;56.50
12101;BME280;6113;42.678;23.334;2022-09-09T06:51:03;94974.06;;;25.33;55.38
12101;BME280;6113;42.678;23.334;2022-09-09T06:53:30;94987.13;;;25.46;54.16
12101;BME280;6113;42.678;23.334;2022-09-09T06:55:59;94991.09;;;25.57;53.85
12101;BME280;6113;42.678;23.334;2022-09-09T06:58:26;94993.25;;;25.79;53.40
12101;BME280;6113;42.678;23.334;2022-09-09T07:01:02;94986.81;;;25.99;52.71
12101;BME280;6113;42.678;23.334;2022-09-09T07:03:28;94982.91;;;25.95;51.95
12101;BME280;6113;42.678;23.334;2022-09-09T07:05:55;94963.16;;;25.85;51.96
12101;BME280;6113;42.678;23.334;2022-09-09T07:08:23;94988.34;;;26.15;51.69
12101;BME280;6113;42.678;23.334;2022-09-09T07:10:50;94993.22;;;26.29;51.00
12101;BME280;6113;42.678;23.334;2022-09-09T07:13:19;94896.94;;;25.78;51.52
12101;BME280;6113;42.678;23.334;2022-09-09T07:15:46;94979.09;;;26.50;50.92
12101;BME280;6113;42.678;23.334;2022-09-09T07:18:14;94980.06;;;26.67;49.83
12101;BME280;6113;42.678;23.334;2022-09-09T07:20:41;94978.94;;;26.78;49.53
12101;BME280;6113;42.678;23.334;2022-09-09T07:23:08;94972.22;;;26.88;48.65
12101;BME280;6113;42.678;23.334;2022-09-09T07:25:34;94986.78;;;27.02;48.11
12101;BME280;6113;42.678;23.334;2022-09-09T07:28:01;94983.22;;;27.09;48.43
12101;BME280;6113;42.678;23.334;2022-09-09T07:30:28;94977.41;;;27.21;47.89
12101;BME280;6113;42.678;23.334;2022-09-09T07:32:55;94974.06;;;27.23;47.61
12101;BME280;6113;42.678;23.334;2022-09-09T07:35:25;94968.25;;;27.28;47.89
12101;BME280;6113;42.678;23.334;2022-09-09T07:37:52;94889.66;;;26.95;47.73
12101;BME280;6113;42.678;23.334;2022-09-09T07:40:19;94964.66;;;27.50;47.56
12101;BME280;6113;42.678;23.334;2022-09-09T07:42:47;94940.63;;;27.47;47.20
12101;BME280;6113;42.678;23.334;2022-09-09T07:45:14;94963.50;;;27.68;47.40
12101;BME280;6113;42.678;23.334;2022-09-09T07:47:40;94961.78;;;27.80;46.35
12101;BME280;6113;42.678;23.334;2022-09-09T07:50:08;94970.03;;;28.02;45.21
12101;BME280;6113;42.678;23.334;2022-09-09T07:52:36;94976.72;;;28.22;45.25
12101;BME280;6113;42.678;23.334;2022-09-09T07:55:04;94981.84;;;28.33;45.23
12101;BME280;6113;42.678;23.334;2022-09-09T07:57:31;94970.53;;;28.48;45.03
12101;BME280;6113;42.678;23.334;2022-09-09T07:59:58;94974.31;;;28.67;44.64
12101;BME280;6113;42.678;23.334;2022-09-09T08:02:24;94942.06;;;28.59;44.12
12101;BME280;6113;42.678;23.334;2022-09-09T08:04:54;94948.25;;;28.57;43.83
12101;BME280;6113;42.678;23.334;2022-09-09T08:07:21;94934.19;;;28.65;43.41
12101;BME280;6113;42.678;23.334;2022-09-09T08:09:50;94969.41;;;28.99;43.01
12101;BME280;6113;42.678;23.334;2022-09-09T08:12:16;94977.97;;;29.01;42.78
12101;BME280;6113;42.678;23.334;2022-09-09T08:14:43;94979.81;;;29.06;43.31
12101;BME280;6113;42.678;23.334;2022-09-09T08:17:10;94967.94;;;28.98;42.91
12101;BME280;6113;42.678;23.334;2022-09-09T08:19:37;94975.34;;;29.03;42.83
12101;BME280;6113;42.678;23.334;2022-09-09T08:22:04;94974.53;;;29.10;42.51
12101;BME280;6113;42.678;23.334;2022-09-09T08:24:30;94971.84;;;29.20;41.93
12101;BME280;6113;42.678;23.334;2022-09-09T08:26:59;94969.28;;;29.31;42.75
12101;BME280;6113;42.678;23.334;2022-09-09T08:29:25;94973.25;;;29.28;42.23
12101;BME280;6113;42.678;23.334;2022-09-09T08:31:56;94980.63;;;29.16;41.99
12101;BME280;6113;42.678;23.334;2022-09-09T08:34:23;94962.31;;;28.98;42.49
12101;BME280;6113;42.678;23.334;2022-09-09T08:36:52;94973.31;;;28.79;43.09
12101;BME280;6113;42.678;23.334;2022-09-09T08:39:20;94956.41;;;28.63;43.80
12101;BME280;6113;42.678;23.334;2022-09-09T08:42:22;94972.31;;;28.60;43.43
12101;BME280;6113;42.678;23.334;2022-09-09T08:47:47;94959.50;;;28.18;44.48
12101;BME280;6113;42.678;23.334;2022-09-09T08:50:21;94957.84;;;28.15;44.19
12101;BME280;6113;42.678;23.334;2022-09-09T08:52:54;94958.94;;;28.19;44.27
12101;BME280;6113;42.678;23.334;2022-09-09T08:55:27;94955.97;;;28.17;44.66
12101;BME280;6113;42.678;23.334;2022-09-09T08:57:59;94967.59;;;28.14;45.12
12101;BME280;6113;42.678;23.334;2022-09-09T09:00:34;94957.84;;;28.15;45.53
12101;BME280;6113;42.678;23.334;2022-09-09T09:03:13;94958.41;;;28.21;45.56
12101;BME280;6113;42.678;23.334;2022-09-09T09:05:47;94935.69;;;28.09;45.34
12101;BME280;6113;42.678;23.334;2022-09-09T09:08:21;94956.13;;;28.27;44.52
12101;BME280;6113;42.678;23.334;2022-09-09T09:10:53;94960.19;;;28.33;44.71
12101;BME280;6113;42.678;23.334;2022-09-09T09:13:30;94956.50;;;28.55;44.44
12101;BME280;6113;42.678;23.334;2022-09-09T09:16:09;94964.09;;;28.62;43.90
12101;BME280;6113;42.678;23.334;2022-09-09T09:18:40;94952.38;;;28.56;43.99
12101;BME280;6113;42.678;23.334;2022-09-09T09:21:12;94934.59;;;28.37;44.59
12101;BME280;6113;42.678;23.334;2022-09-09T09:23:45;94958.66;;;28.40;44.79
12101;BME280;6113;42.678;23.334;2022-09-09T09:26:16;94954.25;;;28.29;44.93
12101;BME280;6113;42.678;23.334;2022-09-09T09:28:45;94946.59;;;28.30;45.36
12101;BME280;6113;42.678;23.334;2022-09-09T09:31:13;94956.72;;;28.25;45.81
12101;BME280;6113;42.678;23.334;2022-09-09T09:33:46;94963.97;;;27.89;46.07
12101;BME280;6113;42.678;23.334;2022-09-09T09:36:15;94954.06;;;27.41;46.96
12101;BME280;6113;42.678;23.334;2022-09-09T09:38:54;94938.97;;;27.37;47.28
12101;BME280;6113;42.678;23.334;2022-09-09T09:41:32;94933.72;;;27.48;47.46
12101;BME280;6113;42.678;23.334;2022-09-09T09:44:02;94943.13;;;27.75;47.53
12101;BME280;6113;42.678;23.334;2022-09-09T09:46:30;94936.84;;;27.99;47.53
12101;BME280;6113;42.678;23.334;2022-09-09T09:48:58;94928.97;;;28.05;47.00
12101;BME280;6113;42.678;23.334;2022-09-09T09:51:25;94928.59;;;28.08;46.36
12101;BME280;6113;42.678;23.334;2022-09-09T09:53:53;94930.13;;;28.02;46.55
12101;BME280;6113;42.678;23.334;2022-09-09T09:56:27;94911.19;;;27.86;46.89
12101;BME280;6113;42.678;23.334;2022-09-09T09:58:55;94925.69;;;27.92;47.42
12101;BME280;6113;42.678;23.334;2022-09-09T10:01:26;94920.84;;;27.92;47.67
12101;BME280;6113;42.678;23.334;2022-09-09T10:03:55;94924.22;;;27.91;47.82
12101;BME280;6113;42.678;23.334;2022-09-09T10:06:30;94925.13;;;27.93;48.08
12101;BME280;6113;42.678;23.334;2022-09-09T10:08:59;94926.78;;;27.96;48.18
12101;BME280;6113;42.678;23.334;2022-09-09T10:11:33;94929.22;;;27.92;47.45
12101;BME280;6113;42.678;23.334;2022-09-09T10:14:13;94938.59;;;27.87;47.52
12101;BME280;6113;42.678;23.334;2022-09-09T10:16:54;94939.38;;;27.80;47.24
12101;BME280;6113;42.678;23.334;2022-09-09T10:19:30;94940.16;;;27.73;47.26
12101;BME280;6113;42.678;23.334;2022-09-09T10:22:04;94948.25;;;27.62;47.92
12101;BME280;6113;42.678;23.334;2022-09-09T10:24:52;94938.72;;;27.50;48.59
12101;BME280;6113;42.678;23.334;2022-09-09T10:27:25;94935.59;;;27.46;49.00
12101;BME280;6113;42.678;23.334;2022-09-09T10:30:03;94940.63;;;27.40;49.36
12101;BME280;6113;42.678;23.334;2022-09-09T10:32:42;94931.91;;;27.28;49.22
12101;BME280;6113;42.678;23.334;2022-09-09T10:35:29;94940.28;;;27.28;50.02
12101;BME280;6113;42.678;23.334;2022-09-09T10:38:19;94939.03;;;27.22;51.59
12101;BME280;6113;42.678;23.334;2022-09-09T10:41:06;94932.91;;;27.09;52.30
12101;BME280;6113;42.678;23.334;2022-09-09T10:43:59;94944.63;;;27.14;52.95
12101;BME280;6113;42.678;23.334;2022-09-09T10:46:36;94946.69;;;27.07;51.85
12101;BME280;6113;42.678;23.334;2022-09-09T10:49:20;94946.88;;;27.01;51.70
12101;BME280;6113;42.678;23.334;2022-09-09T10:51:56;94950.22;;;27.00;51.43
12101;BME280;6113;42.678;23.334;2022-09-09T10:54:37;94948.72;;;26.99;51.81
12101;BME280;6113;42.678;23.334;2022-09-09T10:57:13;94941.47;;;26.96;51.89
12101;BME280;6113;42.678;23.334;2022-09-09T10:59:47;94935.16;;;26.88;51.26
12101;BME280;6113;42.678;23.334;2022-09-09T11:02:19;94941.28;;;26.94;51.54
12101;BME280;6113;42.678;23.334;2022-09-09T11:04:53;94932.53;;;26.90;52.03
12101;BME280;6113;42.678;23.334;2022-09-09T11:07:26;94919.88;;;26.74;52.44
12101;BME280;6113;42.678;23.334;2022-09-09T11:10:01;94945.94;;;26.84;52.54
12101;BME280;6113;42.678;23.334;2022-09-09T11:12:30;94946.91;;;26.79;52.57
12101;BME280;6113;42.678;23.334;2022-09-09T11:15:01;94945.41;;;26.78;52.80
12101;BME280;6113;42.678;23.334;2022-09-09T11:17:36;94943.00;;;26.74;52.75
12101;BME280;6113;42.678;23.334;2022-09-09T11:20:11;94933.47;;;26.77;53.11
12101;BME280;6113;42.678;23.334;2022-09-09T11:22:44;94931.78;;;26.82;53.06
12101;BME280;6113;42.678;23.334;2022-09-09T11:25:16;94929.72;;;26.90;52.80
12101;BME280;6113;42.678;23.334;2022-09-09T11:27:58;94927.34;;;26.79;52.80
12101;BME280;6113;42.678;23.334;2022-09-09T11:30:35;94925.47;;;26.74;53.00
12101;BME280;6113;42.678;23.334;2022-09-09T11:36:36;94905.91;;;26.74;53.78
12101;BME280;6113;42.678;23.334;2022-09-09T11:42:17;94860.13;;;26.62;54.66
12101;BME280;6113;42.678;23.334;2022-09-09T11:44:45;94887.25;;;26.84;55.06
12101;BME280;6113;42.678;23.334;2022-09-09T11:47:23;94876.28;;;26.86;55.83
12101;BME280;6113;42.678;23.334;2022-09-09T11:49:54;94878.13;;;26.91;55.92
12101;BME280;6113;42.678;23.334;2022-09-09T11:52:24;94859.66;;;26.95;54.48
12101;BME280;6113;42.678;23.334;2022-09-09T11:54:55;94845.13;;;26.97;54.22
12101;BME280;6113;42.678;23.334;2022-09-09T11:57:26;94853.91;;;27.01;54.43
12101;BME280;6113;42.678;23.334;2022-09-09T11:59:57;94843.66;;;26.96;53.95
12101;BME280;6113;42.678;23.334;2022-09-09T12:02:25;94863.00;;;27.16;53.75
12101;BME280;6113;42.678;23.334;2022-09-09T12:04:58;94868.13;;;27.34;53.85
12101;BME280;6113;42.678;23.334;2022-09-09T12:07:32;94856.47;;;27.53;52.93
12101;BME280;6113;42.678;23.334;2022-09-09T12:10:05;94855.31;;;27.63;53.13
12101;BME280;6113;42.678;23.334;2022-09-09T12:12:45;94850.63;;;27.73;52.24
12101;BME280;6113;42.678;23.334;2022-09-09T12:15:22;94793.97;;;27.58;52.07
12101;BME280;6113;42.678;23.334;2022-09-09T12:17:50;94843.81;;;28.08;51.98
12101;BME280;6113;42.678;23.334;2022-09-09T12:20:20;94836.28;;;28.18;51.83
12101;BME280;6113;42.678;23.334;2022-09-09T12:23:03;94841.50;;;28.21;51.50
12101;BME280;6113;42.678;23.334;2022-09-09T12:25:41;94824.00;;;28.13;51.44
12101;BME280;6113;42.678;23.334;2022-09-09T12:28:17;94844.25;;;28.29;51.35
12101;BME280;6113;42.678;23.334;2022-09-09T12:30:50;94833.47;;;28.42;50.92
12101;BME280;6113;42.678;23.334;2022-09-09T12:33:20;94827.91;;;28.59;50.59
12101;BME280;6113;42.678;23.334;2022-09-09T12:35:53;94817.84;;;28.73;50.67
12101;BME280;6113;42.678;23.334;2022-09-09T12:38:28;94821.25;;;28.72;50.47
12101;BME280;6113;42.678;23.334;2022-09-09T12:40:58;94791.22;;;28.48;50.30
12101;BME280;6113;42.678;23.334;2022-09-09T12:43:27;94815.06;;;28.56;50.45
12101;BME280;6113;42.678;23.334;2022-09-09T12:45:56;94822.94;;;28.50;50.52
12101;BME280;6113;42.678;23.334;2022-09-09T12:48:30;94815.34;;;28.43;51.32
12101;BME280;6113;42.678;23.334;2022-09-09T12:50:59;94798.38;;;28.24;51.23
12101;BME280;6113;42.678;23.334;2022-09-09T12:53:30;94804.53;;;28.23;51.79
12101;BME280;6113;42.678;23.334;2022-09-09T12:56:01;94786.34;;;28.07;51.56
12101;BME280;6113;42.678;23.334;2022-09-09T12:58:30;94800.59;;;28.26;52.21
12101;BME280;6113;42.678;23.334;2022-09-09T13:00:59;94806.69;;;28.32;51.99
12101;BME280;6113;42.678;23.334;2022-09-09T13:03:30;94799.78;;;28.33;52.14
12101;BME280;6113;42.678;23.334;2022-09-09T13:05:58;94767.97;;;28.21;51.89
12101;BME280;6113;42.678;23.334;2022-09-09T13:08:26;94784.63;;;28.36;51.90
12101;BME280;6113;42.678;23.334;2022-09-09T13:10:56;94781.88;;;28.28;52.47
12101;BME280;6113;42.678;23.334;2022-09-09T13:13:27;94798.88;;;28.30;52.42
12101;BME280;6113;42.678;23.334;2022-09-09T13:15:57;94796.47;;;28.27;52.29
12101;BME280;6113;42.678;23.334;2022-09-09T13:18:27;94806.41;;;28.20;53.06
12101;BME280;6113;42.678;23.334;2022-09-09T13:20:55;94797.25;;;28.20;52.86
12101;BME280;6113;42.678;23.334;2022-09-09T13:23:26;94787.38;;;28.19;52.70
12101;BME280;6113;42.678;23.334;2022-09-09T13:25:57;94750.00;;;27.99;53.06
12101;BME280;6113;42.678;23.334;2022-09-09T13:28:26;94773.00;;;28.15;52.98
12101;BME280;6113;42.678;23.334;2022-09-09T13:30:57;94777.03;;;28.04;53.87
12101;BME280;6113;42.678;23.334;2022-09-09T13:33:30;94761.13;;;27.90;53.41